createdAt,value
2022-12-18T00:01:32.386Z,80.31
2022-12-18T00:04:00.579Z,81.38
2022-12-18T00:06:31.696Z,79.98
2022-12-18T00:09:00.637Z,79.45
2022-12-18T00:11:30.912Z,78.95
2022-12-18T00:14:00.925Z,80.30
2022-12-18T00:16:31.116Z,79.35
2022-12-18T00:19:01.985Z,79.34
2022-12-18T00:21:32.656Z,79.31
2022-12-18T00:24:01.909Z,77.63
2022-12-18T00:26:32.104Z,79.28
2022-12-18T00:29:05.886Z,79.34
2022-12-18T00:31:34.784Z,79.69
2022-12-18T00:34:03.553Z,78.89
2022-12-18T00:36:34.331Z,78.17
2022-12-18T00:39:04.553Z,76.74
2022-12-18T00:41:50.204Z,77.72
2022-12-18T00:44:20.062Z,76.54
2022-12-18T00:46:49.666Z,76.20
2022-12-18T00:49:19.388Z,77.36
2022-12-18T00:51:49.777Z,77.04
2022-12-18T00:54:18.103Z,76.13
2022-12-18T00:56:49.333Z,75.36
2022-12-18T00:59:18.472Z,76.81
2022-12-18T01:01:46.978Z,76.42
2022-12-18T01:04:15.954Z,75.00
2022-12-18T01:06:47.062Z,74.82
2022-12-18T01:09:16.794Z,74.55
2022-12-18T01:11:44.795Z,73.76
2022-12-18T01:14:12.900Z,74.58
2022-12-18T01:16:41.030Z,75.15
2022-12-18T01:19:09.108Z,74.56
2022-12-18T01:21:37.138Z,74.40
2022-12-18T01:24:06.865Z,73.71
2022-12-18T01:26:36.701Z,73.19
2022-12-18T01:29:04.722Z,74.38
2022-12-18T01:31:34.679Z,75.25
2022-12-18T01:34:05.233Z,75.67
2022-12-18T01:36:34.811Z,76.54
2022-12-18T01:39:05.265Z,75.62
2022-12-18T01:41:49.353Z,74.81
2022-12-18T01:44:57.061Z,75.32
2022-12-18T01:47:29.607Z,76.09
2022-12-18T01:49:59.691Z,75.54
2022-12-18T01:52:30.771Z,76.24
2022-12-18T01:54:59.348Z,75.33
2022-12-18T01:57:28.383Z,75.42
2022-12-18T02:00:01.890Z,76.36
2022-12-18T02:02:42.340Z,76.05
2022-12-18T02:05:12.341Z,75.49
2022-12-18T02:07:47.760Z,75.92
2022-12-18T02:10:22.013Z,74.74
2022-12-18T02:12:57.536Z,73.76
2022-12-18T02:15:33.893Z,73.43
2022-12-18T02:18:08.803Z,73.37
2022-12-18T02:20:41.446Z,73.78
2022-12-18T02:23:19.064Z,73.44
2022-12-18T02:26:08.140Z,72.92
2022-12-18T02:28:39.635Z,73.50
2022-12-18T02:31:13.883Z,74.06
2022-12-18T02:33:43.706Z,73.02
2022-12-18T02:36:13.051Z,72.02
2022-12-18T02:38:41.777Z,71.97
2022-12-18T02:41:16.797Z,73.18
2022-12-18T02:43:50.682Z,73.12
2022-12-18T02:46:31.956Z,73.57
2022-12-18T02:49:11.599Z,72.72
2022-12-18T02:51:50.067Z,72.58
2022-12-18T02:54:29.633Z,72.75
2022-12-18T02:57:07.971Z,72.46
2022-12-18T02:59:44.216Z,74.18
2022-12-18T03:02:23.296Z,74.13
2022-12-18T03:05:00.676Z,73.87
2022-12-18T03:07:36.943Z,75.33
2022-12-18T03:10:14.909Z,75.74
2022-12-18T03:12:47.152Z,75.72
2022-12-18T03:15:20.240Z,75.11
2022-12-18T03:17:57.278Z,75.73
2022-12-18T03:20:29.579Z,74.01
2022-12-18T03:23:02.376Z,74.15
2022-12-18T03:25:32.686Z,73.59
2022-12-18T03:28:05.526Z,73.31
2022-12-18T03:30:35.876Z,74.27
2022-12-18T03:33:09.951Z,74.23
2022-12-18T03:35:43.780Z,74.00
2022-12-18T03:38:13.968Z,74.57
2022-12-18T03:40:59.098Z,75.14
2022-12-18T03:43:41.227Z,75.91
2022-12-18T03:46:16.161Z,76.37
2022-12-18T03:48:50.745Z,75.81
2022-12-18T03:51:28.784Z,74.86
2022-12-18T03:54:00.936Z,74.62
2022-12-18T03:56:37.906Z,74.01
2022-12-18T03:59:11.414Z,73.96
2022-12-18T04:01:45.197Z,74.50
2022-12-18T04:04:16.613Z,74.64
2022-12-18T04:06:47.919Z,75.16
2022-12-18T04:09:16.710Z,75.34
2022-12-18T04:11:48.792Z,76.17
2022-12-18T04:14:19.488Z,75.87
2022-12-18T04:16:51.392Z,75.14
2022-12-18T04:19:23.215Z,75.67
2022-12-18T04:21:52.879Z,76.59
2022-12-18T04:24:20.970Z,76.59
2022-12-18T04:27:01.602Z,76.12
2022-12-18T04:29:35.866Z,76.78
2022-12-18T04:32:03.956Z,76.82
2022-12-18T04:34:33.737Z,76.17
2022-12-18T04:37:01.919Z,76.89
2022-12-18T04:39:30.677Z,77.15
2022-12-18T04:42:03.495Z,76.59
2022-12-18T04:44:31.514Z,77.38
2022-12-18T04:47:00.864Z,77.53
2022-12-18T04:49:28.837Z,78.35
2022-12-18T04:51:56.991Z,79.52
2022-12-18T04:54:24.978Z,77.60
2022-12-18T04:56:53.034Z,77.46
2022-12-18T04:59:21.677Z,77.91
2022-12-18T05:01:49.777Z,78.51
2022-12-18T05:04:19.285Z,78.68
2022-12-18T05:06:48.147Z,77.22
2022-12-18T05:09:16.769Z,77.63
2022-12-18T05:11:45.203Z,78.28
2022-12-18T05:14:14.467Z,79.00
2022-12-18T05:16:42.740Z,78.85
2022-12-18T05:19:10.879Z,79.44
2022-12-18T05:21:40.539Z,79.86
2022-12-18T05:24:08.927Z,80.74
2022-12-18T05:26:36.925Z,79.71
2022-12-18T05:29:05.023Z,79.63
2022-12-18T05:31:38.928Z,79.23
2022-12-18T05:34:08.287Z,79.42
2022-12-18T05:36:36.433Z,79.41
2022-12-18T05:39:05.934Z,79.26
2022-12-18T05:41:34.160Z,79.67
2022-12-18T05:44:02.385Z,79.21
2022-12-18T05:46:30.609Z,77.43
2022-12-18T05:49:01.564Z,77.36
2022-12-18T05:51:30.035Z,77.50
2022-12-18T05:53:58.020Z,78.54
2022-12-18T05:56:27.444Z,77.24
2022-12-18T05:58:56.354Z,77.01
2022-12-18T06:01:27.936Z,76.76
2022-12-18T06:03:56.892Z,76.25
2022-12-18T06:06:27.021Z,77.07
2022-12-18T06:08:56.316Z,78.27
2022-12-18T06:11:26.331Z,79.24
2022-12-18T06:13:58.932Z,78.79
2022-12-18T06:16:28.024Z,77.97
2022-12-18T06:18:58.532Z,76.72
2022-12-18T06:21:26.872Z,75.56
2022-12-18T06:23:55.051Z,75.76
2022-12-18T06:26:27.765Z,75.61
2022-12-18T06:28:58.001Z,75.69
2022-12-18T06:31:27.624Z,77.26
2022-12-18T06:33:55.822Z,76.95
2022-12-18T06:36:23.891Z,76.92
2022-12-18T06:38:53.391Z,78.14
2022-12-18T06:41:23.173Z,78.61
2022-12-18T06:43:53.581Z,79.18
2022-12-18T06:46:25.044Z,78.76
2022-12-18T06:48:53.007Z,78.72
2022-12-18T06:51:21.978Z,78.27
2022-12-18T06:53:50.023Z,78.71
2022-12-18T06:56:18.248Z,77.64
2022-12-18T06:58:46.612Z,77.33
2022-12-18T07:01:15.696Z,78.17
2022-12-18T07:03:45.674Z,77.12
2022-12-18T07:06:19.101Z,77.57
2022-12-18T07:08:47.586Z,77.84
2022-12-18T07:11:16.160Z,77.72
2022-12-18T07:13:44.708Z,77.16
2022-12-18T07:16:22.380Z,77.77
2022-12-18T07:18:54.787Z,78.49
2022-12-18T07:21:23.803Z,77.08
2022-12-18T07:23:51.810Z,76.85
2022-12-18T07:26:21.383Z,77.01
2022-12-18T07:28:50.648Z,76.82
2022-12-18T07:31:21.514Z,77.03
2022-12-18T07:33:50.461Z,76.63
2022-12-18T07:36:20.424Z,76.38
2022-12-18T07:38:49.948Z,75.60
2022-12-18T07:41:19.674Z,76.51
2022-12-18T07:43:48.445Z,77.05
2022-12-18T07:46:17.848Z,77.14
2022-12-18T07:48:50.052Z,77.38
2022-12-18T07:51:21.012Z,75.41
2022-12-18T07:53:52.286Z,76.11
2022-12-18T07:56:30.336Z,75.82
2022-12-18T07:58:59.569Z,76.60
2022-12-18T08:01:27.921Z,76.67
2022-12-18T08:03:56.097Z,76.46
2022-12-18T08:06:25.458Z,74.68
2022-12-18T08:08:54.760Z,74.59
2022-12-18T08:11:23.672Z,74.26
2022-12-18T08:13:51.861Z,74.75
2022-12-18T08:16:20.782Z,75.23
2022-12-18T08:18:49.469Z,76.25
2022-12-18T08:21:22.094Z,76.64
2022-12-18T08:23:52.412Z,76.33
2022-12-18T08:26:21.309Z,75.37
2022-12-18T08:28:50.825Z,75.51
2022-12-18T08:31:19.410Z,75.40
2022-12-18T08:33:49.970Z,75.20
2022-12-18T08:36:18.228Z,74.91
2022-12-18T08:38:46.269Z,73.64
2022-12-18T08:41:18.247Z,72.08
2022-12-18T08:44:04.174Z,71.61
2022-12-18T08:46:36.664Z,73.53
2022-12-18T08:49:05.374Z,72.52
2022-12-18T08:51:33.397Z,73.05
2022-12-18T08:54:01.358Z,73.00
2022-12-18T08:56:32.040Z,72.65
2022-12-18T08:59:00.198Z,72.45
2022-12-18T09:01:28.485Z,72.34
2022-12-18T09:03:56.593Z,72.18
2022-12-18T09:06:25.481Z,72.93
2022-12-18T09:08:53.543Z,72.68
2022-12-18T09:11:24.607Z,72.98
2022-12-18T09:13:54.980Z,73.51
2022-12-18T09:16:30.134Z,73.40
2022-12-18T09:19:01.340Z,74.31
2022-12-18T09:21:33.937Z,74.56
2022-12-18T09:24:08.026Z,73.21
2022-12-18T09:26:37.318Z,73.25
2022-12-18T09:29:08.177Z,73.10
2022-12-18T09:31:36.789Z,73.56
2022-12-18T09:34:04.869Z,72.61
2022-12-18T09:36:34.058Z,72.87
2022-12-18T09:39:07.564Z,72.30
2022-12-18T09:41:45.163Z,73.05
2022-12-18T09:44:22.199Z,72.77
2022-12-18T09:46:56.763Z,72.69
2022-12-18T09:49:28.303Z,72.30
2022-12-18T09:52:01.875Z,72.54
2022-12-18T09:54:38.070Z,72.74
2022-12-18T09:57:06.452Z,72.41
2022-12-18T09:59:38.477Z,72.00
2022-12-18T10:02:18.682Z,71.49
2022-12-18T10:04:55.782Z,71.80
2022-12-18T10:07:31.359Z,72.10
2022-12-18T10:10:07.243Z,70.59
2022-12-18T10:12:43.409Z,70.95
2022-12-18T10:15:21.927Z,70.92
2022-12-18T10:17:57.543Z,71.34
2022-12-18T10:20:34.968Z,71.06
2022-12-18T10:23:16.036Z,71.28
2022-12-18T10:25:57.692Z,72.16
2022-12-18T10:28:26.879Z,71.52
2022-12-18T10:30:56.262Z,71.86
2022-12-18T10:33:26.584Z,71.56
2022-12-18T10:35:56.333Z,71.91
2022-12-18T10:38:27.158Z,70.79
2022-12-18T10:40:57.576Z,68.85
2022-12-18T10:43:28.374Z,68.38
2022-12-18T10:46:04.621Z,68.01
2022-12-18T10:48:33.872Z,67.48
2022-12-18T10:51:10.804Z,67.03
2022-12-18T10:53:44.079Z,66.58
2022-12-18T10:56:13.051Z,66.45
2022-12-18T10:58:41.814Z,67.02
2022-12-18T11:01:13.964Z,66.02
2022-12-18T11:03:44.560Z,67.83
2022-12-18T11:06:15.395Z,67.37
2022-12-18T11:08:46.552Z,68.07
2022-12-18T11:11:22.523Z,67.96
2022-12-18T11:14:01.416Z,66.38
2022-12-18T11:16:32.998Z,64.83
2022-12-18T11:19:25.892Z,64.54
2022-12-18T11:21:54.127Z,64.72
2022-12-18T11:24:29.342Z,65.35
2022-12-18T11:26:59.792Z,63.99
2022-12-18T11:29:35.608Z,65.91
2022-12-18T11:32:30.394Z,68.20
2022-12-18T11:35:05.321Z,68.02
2022-12-18T11:37:35.016Z,69.10
2022-12-18T11:40:09.197Z,68.65
2022-12-18T11:42:43.672Z,68.67
2022-12-18T11:45:26.868Z,67.92
2022-12-18T11:48:01.425Z,67.83
2022-12-18T11:50:36.009Z,67.83
2022-12-18T11:53:06.357Z,66.69
2022-12-18T11:55:42.107Z,68.38
2022-12-18T11:58:22.561Z,70.02
2022-12-18T12:00:59.268Z,71.83
2022-12-18T12:03:49.894Z,71.58
2022-12-18T12:06:25.160Z,69.68
2022-12-18T12:09:05.021Z,68.53
2022-12-18T12:11:44.313Z,67.71
2022-12-18T12:14:24.823Z,66.44
2022-12-18T12:16:59.416Z,65.61
2022-12-18T12:19:38.848Z,64.82
2022-12-18T12:22:16.056Z,66.67
2022-12-18T12:24:58.468Z,68.08
2022-12-18T12:27:36.742Z,68.09
2022-12-18T12:30:10.380Z,68.40
2022-12-18T12:32:53.029Z,70.28
2022-12-18T12:35:31.894Z,69.56
2022-12-18T12:38:11.546Z,68.05
2022-12-18T12:40:55.187Z,68.03
2022-12-18T12:43:34.468Z,67.78
2022-12-18T12:46:07.852Z,67.43
2022-12-18T12:48:45.624Z,67.42
2022-12-18T12:51:21.029Z,66.66
2022-12-18T12:53:50.616Z,66.30
2022-12-18T12:56:22.889Z,67.88
2022-12-18T12:59:07.143Z,67.58
2022-12-18T13:01:43.267Z,67.10
2022-12-18T13:04:23.915Z,67.52
2022-12-18T13:07:03.657Z,66.43
2022-12-18T13:09:36.826Z,66.44
2022-12-18T13:12:34.916Z,67.07
2022-12-18T13:15:22.602Z,66.71
2022-12-18T13:17:50.986Z,65.54
2022-12-18T13:20:19.331Z,65.47
2022-12-18T13:22:51.345Z,66.46
2022-12-18T13:25:35.797Z,65.04
2022-12-18T13:28:07.264Z,65.42
2022-12-18T13:30:58.048Z,64.59
2022-12-18T13:34:02.223Z,65.21
2022-12-18T13:36:34.529Z,65.47
2022-12-18T13:39:29.945Z,66.95
2022-12-18T13:43:00.311Z,67.03
2022-12-18T13:45:43.299Z,67.26
2022-12-18T13:48:25.183Z,68.15
2022-12-18T13:51:01.753Z,67.38
2022-12-18T13:53:35.004Z,67.90
2022-12-18T13:56:05.805Z,68.09
2022-12-18T13:58:34.059Z,68.20
2022-12-18T14:01:04.177Z,68.86
2022-12-18T14:03:32.647Z,70.25
2022-12-18T14:06:08.573Z,70.89
2022-12-18T14:08:41.508Z,73.41
2022-12-18T14:11:21.321Z,73.13
2022-12-18T14:13:50.299Z,72.20
2022-12-18T14:16:19.817Z,72.32
2022-12-18T14:18:50.217Z,71.86
2022-12-18T14:21:22.058Z,72.63
2022-12-18T14:23:50.199Z,71.54
2022-12-18T14:26:30.380Z,72.84
2022-12-18T14:29:02.153Z,71.10
2022-12-18T14:31:32.639Z,72.34
2022-12-18T14:34:00.734Z,72.21
2022-12-18T14:36:30.552Z,73.30
2022-12-18T14:39:00.405Z,72.68
2022-12-18T14:41:29.995Z,72.87
2022-12-18T14:44:08.222Z,73.36
2022-12-18T14:46:39.631Z,76.34
2022-12-18T14:49:22.646Z,74.19
2022-12-18T14:51:53.119Z,76.16
2022-12-18T14:54:23.029Z,75.82
2022-12-18T14:56:58.596Z,75.67
2022-12-18T14:59:28.235Z,75.80
2022-12-18T15:02:03.353Z,76.04
2022-12-18T15:04:36.282Z,76.62
2022-12-18T15:07:12.289Z,78.48
2022-12-18T15:09:41.708Z,78.87
2022-12-18T15:12:26.819Z,76.93
2022-12-18T15:14:54.904Z,77.13
2022-12-18T15:17:26.100Z,76.45
2022-12-18T15:20:00.980Z,75.76
2022-12-18T15:22:31.183Z,76.82
2022-12-18T15:25:01.120Z,77.18
2022-12-18T15:27:33.396Z,76.67
2022-12-18T15:30:20.107Z,76.22
2022-12-18T15:32:48.762Z,75.50
2022-12-18T15:35:20.325Z,76.15
2022-12-18T15:37:48.516Z,76.63
2022-12-18T15:40:18.071Z,77.28
2022-12-18T15:43:08.350Z,76.64
2022-12-18T15:45:36.770Z,77.92
2022-12-18T15:48:13.398Z,78.00
2022-12-18T15:50:41.559Z,78.39
2022-12-18T15:53:11.105Z,78.50
2022-12-18T15:56:00.973Z,78.18
2022-12-18T15:58:30.819Z,81.05
2022-12-18T16:01:01.951Z,79.87
2022-12-18T16:03:30.212Z,80.84
2022-12-18T16:05:59.429Z,79.85
2022-12-18T16:08:28.377Z,80.63
2022-12-18T16:10:57.223Z,79.99
2022-12-18T16:13:25.861Z,81.00
2022-12-18T16:15:55.512Z,80.95
2022-12-18T16:18:23.723Z,81.01
2022-12-18T16:20:51.837Z,79.89
2022-12-18T16:23:19.821Z,79.68
2022-12-18T16:25:48.693Z,79.61
2022-12-18T16:28:16.837Z,79.42
2022-12-18T16:30:45.945Z,79.48
2022-12-18T16:33:15.445Z,79.23
2022-12-18T16:35:44.636Z,79.31
2022-12-18T16:38:12.641Z,79.20
2022-12-18T16:41:02.959Z,79.68
2022-12-18T16:43:31.055Z,79.57
2022-12-18T16:46:01.197Z,79.57
2022-12-18T16:48:30.652Z,79.42
2022-12-18T16:51:03.744Z,79.35
2022-12-18T16:53:32.272Z,79.69
2022-12-18T16:56:01.536Z,79.70
2022-12-18T16:58:29.689Z,80.05
2022-12-18T17:00:57.764Z,80.52
2022-12-18T17:03:25.955Z,81.67
2022-12-18T17:05:56.167Z,81.52
2022-12-18T17:08:24.343Z,82.22
2022-12-18T17:10:52.334Z,81.80
2022-12-18T17:13:25.569Z,81.57
2022-12-18T17:15:54.219Z,82.28
2022-12-18T17:18:23.236Z,81.65
2022-12-18T17:20:51.378Z,81.57
2022-12-18T17:23:20.956Z,82.01
2022-12-18T17:25:49.081Z,82.09
2022-12-18T17:28:17.352Z,81.66
2022-12-18T17:30:45.791Z,81.24
2022-12-18T17:33:14.157Z,81.06
2022-12-18T17:35:44.015Z,81.75
2022-12-18T17:38:13.039Z,81.43
2022-12-18T17:40:46.222Z,81.95
2022-12-18T17:43:14.969Z,81.84
2022-12-18T17:45:43.822Z,81.69
2022-12-18T17:48:12.483Z,81.53
2022-12-18T17:50:41.320Z,81.25
2022-12-18T17:53:09.645Z,80.79
2022-12-18T17:55:37.831Z,80.37
2022-12-18T17:58:07.421Z,80.39
2022-12-18T18:00:35.452Z,80.10
2022-12-18T18:03:03.753Z,80.50
2022-12-18T18:05:31.893Z,80.77
2022-12-18T18:08:02.952Z,80.59
2022-12-18T18:10:30.932Z,80.44
2022-12-18T18:13:17.697Z,80.73
2022-12-18T18:15:55.992Z,80.65
2022-12-18T18:18:24.216Z,80.88
2022-12-18T18:20:53.969Z,80.88
2022-12-18T18:23:22.266Z,80.85
2022-12-18T18:25:50.242Z,81.06
2022-12-18T18:28:19.477Z,80.50
2022-12-18T18:30:48.781Z,80.68
2022-12-18T18:33:18.249Z,80.42
2022-12-18T18:35:54.438Z,80.48
2022-12-18T18:38:23.186Z,80.40
2022-12-18T18:40:59.328Z,80.25
2022-12-18T18:43:27.352Z,80.08
2022-12-18T18:45:58.820Z,80.19
2022-12-18T18:48:27.464Z,79.94
2022-12-18T18:50:58.443Z,79.63
2022-12-18T18:53:26.859Z,79.28
2022-12-18T18:56:17.482Z,78.89
2022-12-18T18:58:42.966Z,79.11
2022-12-18T19:01:15.177Z,78.66
2022-12-18T19:03:44.853Z,78.68
2022-12-18T19:06:15.550Z,78.63
2022-12-18T19:08:44.368Z,78.62
2022-12-18T19:11:30.617Z,78.74
2022-12-18T19:14:06.018Z,78.76
2022-12-18T19:16:37.010Z,78.85
2022-12-18T19:19:05.744Z,78.95
2022-12-18T19:21:34.875Z,79.04
2022-12-18T19:24:03.517Z,79.23
2022-12-18T19:26:31.547Z,79.43
2022-12-18T19:29:03.338Z,79.65
2022-12-18T19:31:35.462Z,79.65
2022-12-18T19:34:07.806Z,79.75
2022-12-18T19:36:38.952Z,80.44
2022-12-18T19:39:10.695Z,80.70
2022-12-18T19:41:38.939Z,80.55
2022-12-18T19:44:08.677Z,80.37
2022-12-18T19:46:40.330Z,80.39
2022-12-18T19:49:18.036Z,80.36
2022-12-18T19:51:46.697Z,80.21
2022-12-18T19:54:16.987Z,80.00
2022-12-18T19:56:45.866Z,80.25
2022-12-18T19:59:14.113Z,80.16
2022-12-18T20:01:42.263Z,80.12
2022-12-18T20:04:10.465Z,80.03
2022-12-18T20:06:48.728Z,76.43
2022-12-18T20:09:17.580Z,74.93
2022-12-18T20:11:46.151Z,74.54
2022-12-18T20:14:22.734Z,74.13
2022-12-18T20:16:52.406Z,74.24
2022-12-18T20:19:21.664Z,73.97
2022-12-18T20:21:51.236Z,73.72
2022-12-18T20:24:19.275Z,73.49
2022-12-18T20:26:47.289Z,73.41
2022-12-18T20:29:15.320Z,73.91
2022-12-18T20:31:43.369Z,74.13
2022-12-18T20:34:11.569Z,73.91
2022-12-18T20:36:39.894Z,73.62
2022-12-18T20:39:13.323Z,73.13
2022-12-18T20:41:41.684Z,73.25
2022-12-18T20:44:23.020Z,73.29
2022-12-18T20:46:53.415Z,73.07
2022-12-18T20:49:21.532Z,73.36
2022-12-18T20:51:52.402Z,74.32
2022-12-18T20:54:22.113Z,74.24
2022-12-18T20:56:50.202Z,74.42
2022-12-18T20:59:19.858Z,74.61
2022-12-18T21:01:48.400Z,74.74
2022-12-18T21:04:18.533Z,75.03
2022-12-18T21:06:51.433Z,75.22
2022-12-18T21:09:22.731Z,74.90
2022-12-18T21:12:08.814Z,75.20
2022-12-18T21:14:40.027Z,75.15
2022-12-18T21:17:08.129Z,75.37
2022-12-18T21:19:36.208Z,75.50
2022-12-18T21:22:04.483Z,75.49
2022-12-18T21:24:34.037Z,75.02
2022-12-18T21:27:02.125Z,75.04
2022-12-18T21:29:30.306Z,75.63
2022-12-18T21:31:58.345Z,75.62
2022-12-18T21:34:28.804Z,75.33
2022-12-18T21:36:59.201Z,74.84
2022-12-18T21:39:28.811Z,75.00
2022-12-18T21:42:16.609Z,74.78
2022-12-18T21:44:45.626Z,74.35
2022-12-18T21:47:22.909Z,74.02
2022-12-18T21:49:52.855Z,74.13
2022-12-18T21:52:27.260Z,74.09
2022-12-18T21:55:03.268Z,73.90
2022-12-18T21:57:38.013Z,73.85
2022-12-18T22:00:07.596Z,74.06
2022-12-18T22:02:41.857Z,73.94
2022-12-18T22:05:10.667Z,73.68
2022-12-18T22:07:39.211Z,73.51
2022-12-18T22:10:08.168Z,73.32
2022-12-18T22:12:43.105Z,73.25
2022-12-18T22:15:18.634Z,73.09
2022-12-18T22:17:50.428Z,73.17
2022-12-18T22:20:20.082Z,73.15
2022-12-18T22:22:48.637Z,73.18
2022-12-18T22:25:16.695Z,73.70
2022-12-18T22:28:07.058Z,74.95
2022-12-18T22:30:34.076Z,75.07
2022-12-18T22:33:02.788Z,74.63
2022-12-18T22:35:30.812Z,74.80
2022-12-18T22:37:59.724Z,74.26
2022-12-18T22:40:28.601Z,74.71
2022-12-18T22:42:58.208Z,74.89
2022-12-18T22:45:26.796Z,74.48
2022-12-18T22:47:54.985Z,75.31
2022-12-18T22:50:23.096Z,74.31
2022-12-18T22:52:51.102Z,75.53
2022-12-18T22:55:19.110Z,75.09
2022-12-18T22:57:49.033Z,75.14
2022-12-18T23:00:23.790Z,74.33
2022-12-18T23:02:59.185Z,74.03
2022-12-18T23:05:27.668Z,74.20
2022-12-18T23:07:55.967Z,74.38
2022-12-18T23:10:24.092Z,74.49
2022-12-18T23:12:52.151Z,73.89
2022-12-18T23:15:27.207Z,74.59
2022-12-18T23:17:57.400Z,74.03
2022-12-18T23:20:25.441Z,75.18
2022-12-18T23:22:53.465Z,74.80
2022-12-18T23:25:21.654Z,75.23
2022-12-18T23:27:49.684Z,75.55
2022-12-18T23:30:17.857Z,76.36
2022-12-18T23:32:47.266Z,75.84
2022-12-18T23:35:15.805Z,75.53
2022-12-18T23:37:58.801Z,77.20
2022-12-18T23:40:28.033Z,75.83
2022-12-18T23:42:56.057Z,75.28
2022-12-18T23:45:24.132Z,75.32
2022-12-18T23:47:53.497Z,75.33
2022-12-18T23:50:24.528Z,75.38
2022-12-18T23:52:57.238Z,74.75
2022-12-18T23:55:33.478Z,74.73
2022-12-18T23:58:01.545Z,74.67
